Humidity-temperature Sensor

Selected Measurement Type: Air Temperature

 
Air Temperature [°C]     6 entries per hour
Showing data from 7/15/2020 (12:00:00 Z) to 7/8/2020 (00:01:00 Z)
Previous Next [ Day | 3-Days | 7-Days ]
First Last
Prev [ Day | 3-Days | 7-Days ] Next
First Last

Start Time:     :
End Time:     :     
Time (in GMT) :00 :50 :40 :30 :20 :10
Previous Next [ Day | 3-Days | 7-Days ]
First Last
Prev [ Day | 3-Days | 7-Days ] Next
First Last


123 => good data
MM => data is determined as missing
-- => data not received/configured
Back to Top Back to Top
7/15/2020 12:00 to 11:10 22.79 22.84 22.71 22.72 22.70 22.63
7/15/2020 11:00 to 10:10 22.51 22.80 22.69 22.82 22.75 22.77
7/15/2020 10:00 to 9:10 22.78 22.73 22.77 22.78 22.77 22.76
7/15/2020 09:00 to 8:10 22.82 22.82 22.74 22.76 22.89 22.85
7/15/2020 08:00 to 7:10 22.82 22.82 22.92 22.89 22.89 22.92
7/15/2020 07:00 to 6:10 22.92 22.89 22.97 22.91 22.91 22.98
7/15/2020 06:00 to 5:10 22.94 22.93 22.91 23.00 22.92 22.80
7/15/2020 05:00 to 4:10 22.89 22.91 22.89 22.86 23.00 22.95
7/15/2020 04:00 to 3:10 22.98 22.93 22.90 22.96 22.90 22.94
7/15/2020 03:00 to 2:10 -- -- -- -- -- --
7/15/2020 02:00 to 1:10 22.92 22.96 23.05 22.89 22.95 22.88
7/15/2020 01:00 to 0:10 22.91 22.90 23.09 23.21 23.25 23.19
7/15/2020 00:00 to 23:10 23.32 23.23 23.28 23.26 23.30 23.21
7/14/2020 23:00 to 22:10 23.32 23.30 23.22 23.34 23.23 23.11
7/14/2020 22:00 to 21:10 23.15 23.10 23.06 23.09 23.05 23.00
7/14/2020 21:00 to 20:10 22.99 22.95 22.87 22.91 22.83 22.97
7/14/2020 20:00 to 19:10 23.17 23.24 23.25 23.30 23.21 23.23
7/14/2020 19:00 to 18:10 23.23 23.20 23.07 23.06 23.10 23.10
7/14/2020 18:00 to 17:10 23.01 23.12 23.09 23.12 23.03 23.03
7/14/2020 17:00 to 16:10 23.04 23.02 23.02 22.98 22.97 23.07
7/14/2020 16:00 to 15:10 22.94 22.85 22.91 22.85 22.81 22.85
7/14/2020 15:00 to 14:10 22.72 22.73 22.76 22.70 22.59 22.57
7/14/2020 14:00 to 13:10 22.65 22.63 22.52 22.69 22.46 22.55
7/14/2020 13:00 to 12:10 22.53 22.52 22.64 22.70 22.63 22.51
7/14/2020 12:00 to 11:10 22.48 22.68 22.63 22.62 22.51 22.44
7/14/2020 11:00 to 10:10 22.48 22.37 22.47 22.46 22.67 22.75
7/14/2020 10:00 to 9:10 22.65 22.60 22.55 22.61 22.56 22.66
7/14/2020 09:00 to 8:10 22.71 22.70 22.69 22.64 22.69 22.67
7/14/2020 08:00 to 7:10 22.73 22.72 22.70 22.74 22.75 22.74
7/14/2020 07:00 to 6:10 22.78 22.77 22.81 22.79 22.91 22.98
7/14/2020 06:00 to 5:10 22.94 22.90 22.87 22.77 22.84 22.73
7/14/2020 05:00 to 4:10 22.71 22.77 22.74 22.82 22.81 22.76
7/14/2020 04:00 to 3:10 22.72 22.75 22.82 22.72 22.76 22.79
7/14/2020 03:00 to 2:10 22.83 22.72 22.79 22.83 22.77 22.73
7/14/2020 02:00 to 1:10 22.77 22.75 22.82 22.79 22.83 22.90
7/14/2020 01:00 to 0:10 22.88 22.82 23.01 23.11 23.09 23.06
7/14/2020 00:00 to 23:10 23.01 23.25 23.20 23.08 23.11 23.12
7/13/2020 23:00 to 22:10 23.11 23.02 23.13 23.06 23.02 23.05
7/13/2020 22:00 to 21:10 23.05 23.00 23.01 22.97 23.06 23.05
7/13/2020 21:00 to 20:10 22.98 22.95 23.03 22.95 23.05 23.09
7/13/2020 20:00 to 19:10 23.13 23.13 23.10 23.09 23.06 23.13
7/13/2020 19:00 to 18:10 22.99 22.98 22.96 22.88 22.84 22.90
7/13/2020 18:00 to 17:10 22.96 22.98 22.90 22.83 22.81 22.84
7/13/2020 17:00 to 16:10 22.78 22.73 22.76 22.72 22.75 22.77
7/13/2020 16:00 to 15:10 22.76 22.79 22.72 22.70 22.69 22.70
7/13/2020 15:00 to 14:10 22.70 22.71 22.73 22.68 22.66 22.72
7/13/2020 14:00 to 13:10 22.57 22.54 22.60 22.58 22.53 22.59
7/13/2020 13:00 to 12:10 22.51 22.45 22.46 22.39 22.41 22.45
7/13/2020 12:00 to 11:10 22.41 22.43 22.40 22.36 22.43 22.38
7/13/2020 11:00 to 10:10 22.44 22.47 22.44 22.47 22.51 22.53
7/13/2020 10:00 to 9:10 22.53 22.50 22.50 22.52 22.56 22.49
7/13/2020 09:00 to 8:10 22.42 22.47 22.51 22.54 22.54 22.50
7/13/2020 08:00 to 7:10 22.41 22.48 22.46 22.47 22.44 22.43
7/13/2020 07:00 to 6:10 22.52 22.44 22.48 22.52 22.50 22.49
7/13/2020 06:00 to 5:10 22.50 22.50 22.51 22.59 22.61 22.60
7/13/2020 05:00 to 4:10 22.65 22.61 22.56 22.59 22.64 22.58
7/13/2020 04:00 to 3:10 22.64 22.59 22.59 22.55 22.58 22.63
7/13/2020 03:00 to 2:10 22.62 22.66 22.62 22.65 22.64 22.65
7/13/2020 02:00 to 1:10 22.66 22.68 22.66 22.71 22.79 22.80
7/13/2020 01:00 to 0:10 22.76 22.88 22.91 22.93 23.09 23.08
7/13/2020 00:00 to 23:10 23.09 23.12 23.01 23.04 22.99 22.95
7/12/2020 23:00 to 22:10 23.00 23.03 22.96 22.92 22.98 22.92
7/12/2020 22:00 to 21:10 22.88 22.90 22.98 23.05 23.01 22.92
7/12/2020 21:00 to 20:10 22.93 22.94 22.96 22.90 22.91 22.91
7/12/2020 20:00 to 19:10 22.89 22.91 22.83 22.76 22.80 22.85
7/12/2020 19:00 to 18:10 22.79 22.83 22.84 22.80 22.82 22.77
7/12/2020 18:00 to 17:10 22.75 22.77 22.81 22.78 22.76 22.76
7/12/2020 17:00 to 16:10 22.77 22.80 22.81 22.77 22.78 22.77
7/12/2020 16:00 to 15:10 22.78 22.71 22.73 22.80 22.84 22.74
7/12/2020 15:00 to 14:10 22.71 22.66 22.79 22.65 22.60 22.58
7/12/2020 14:00 to 13:10 22.51 22.52 22.49 22.52 22.42 22.31
7/12/2020 13:00 to 12:10 22.41 22.39 22.38 22.41 22.41 22.37
7/12/2020 12:00 to 11:10 22.40 22.35 22.32 22.39 22.39 22.35
7/12/2020 11:00 to 10:10 22.34 22.37 22.38 22.40 22.47 22.44
7/12/2020 10:00 to 9:10 22.43 22.46 22.38 22.44 22.44 22.46
7/12/2020 09:00 to 8:10 22.38 22.45 22.53 22.34 22.50 22.74
7/12/2020 08:00 to 7:10 22.33 22.56 22.69 22.50 22.19 22.38
7/12/2020 07:00 to 6:10 22.39 22.43 22.35 22.34 22.15 21.83
7/12/2020 06:00 to 5:10 21.80 22.65 22.57 22.59 22.59 22.46
7/12/2020 05:00 to 4:10 22.62 22.68 22.69 22.69 22.69 22.69
7/12/2020 04:00 to 3:10 22.73 22.72 22.63 22.63 22.75 22.70
7/12/2020 03:00 to 2:10 22.56 22.62 22.61 22.82 22.86 22.89
7/12/2020 02:00 to 1:10 22.76 22.79 22.80 22.80 22.88 22.85
7/12/2020 01:00 to 0:10 22.84 22.85 22.83 22.84 22.91 23.03
7/12/2020 00:00 to 23:10 23.12 23.16 23.29 23.27 23.21 23.30
7/11/2020 23:00 to 22:10 23.21 23.22 23.16 23.14 23.05 23.09
7/11/2020 22:00 to 21:10 23.07 23.06 23.09 23.15 23.07 23.03
7/11/2020 21:00 to 20:10 23.03 23.02 23.01 23.02 23.05 23.11
7/11/2020 20:00 to 19:10 23.02 23.01 23.01 23.04 22.94 22.85
7/11/2020 19:00 to 18:10 22.74 22.67 22.58 22.73 22.76 22.76
7/11/2020 18:00 to 17:10 22.71 22.66 22.64 22.73 22.63 22.64
7/11/2020 17:00 to 16:10 22.66 22.68 22.52 22.49 22.36 22.58
7/11/2020 16:00 to 15:10 22.64 22.60 22.54 22.60 22.67 22.67
7/11/2020 15:00 to 14:10 22.60 22.61 22.66 22.62 22.52 22.57
7/11/2020 14:00 to 13:10 22.51 22.49 22.47 22.42 22.44 22.47
7/11/2020 13:00 to 12:10 22.46 22.47 22.49 22.53 22.55 22.55
7/11/2020 12:00 to 11:10 22.55 22.50 22.51 22.51 22.56 22.55
7/11/2020 11:00 to 10:10 22.51 22.52 22.47 22.48 22.49 22.50
7/11/2020 10:00 to 9:10 22.49 22.51 22.50 22.51 22.57 22.60
7/11/2020 09:00 to 8:10 22.67 22.76 22.85 22.66 22.68 22.71
7/11/2020 08:00 to 7:10 22.78 22.79 22.84 22.89 22.80 22.90
7/11/2020 07:00 to 6:10 22.90 22.79 22.90 22.85 22.80 22.67
7/11/2020 06:00 to 5:10 22.73 22.60 22.51 22.56 22.59 22.54
7/11/2020 05:00 to 4:10 22.49 22.49 22.51 22.54 22.55 22.59
7/11/2020 04:00 to 3:10 22.59 22.62 22.62 22.65 22.71 22.69
7/11/2020 03:00 to 2:10 22.67 22.63 22.65 22.65 22.64 22.67
7/11/2020 02:00 to 1:10 -- -- -- -- -- --
7/11/2020 01:00 to 0:10 -- -- -- -- -- --
7/11/2020 00:00 to 23:10 23.22 23.26 23.27 23.32 23.29 23.22
7/10/2020 23:00 to 22:10 23.27 23.18 23.12 23.06 23.07 23.04
7/10/2020 22:00 to 21:10 -- -- -- -- -- --
7/10/2020 21:00 to 20:10 -- -- -- -- -- --
7/10/2020 20:00 to 19:10 -- -- -- -- -- --
7/10/2020 19:00 to 18:10 -- -- -- -- -- --
7/10/2020 18:00 to 17:10 -- -- -- -- -- --
7/10/2020 17:00 to 16:10 -- -- -- -- -- --
7/10/2020 16:00 to 15:10 -- -- -- -- -- --
7/10/2020 15:00 to 14:10 -- -- -- -- -- --
7/10/2020 14:00 to 13:10 -- -- -- -- -- --
7/10/2020 13:00 to 12:10 -- -- -- -- -- --
7/10/2020 12:00 to 11:10 -- -- -- -- -- --
7/10/2020 11:00 to 10:10 -- -- -- -- -- --
7/10/2020 10:00 to 9:10 -- -- -- -- -- --
7/10/2020 09:00 to 8:10 -- -- -- -- -- --
7/10/2020 08:00 to 7:10 -- -- -- -- -- --
7/10/2020 07:00 to 6:10 -- -- -- -- -- --
7/10/2020 06:00 to 5:10 -- -- -- -- -- --
7/10/2020 05:00 to 4:10 -- -- -- -- -- --
7/10/2020 04:00 to 3:10 -- -- -- -- -- --
7/10/2020 03:00 to 2:10 -- -- -- -- -- --
7/10/2020 02:00 to 1:10 -- -- -- -- -- --
7/10/2020 01:00 to 0:10 -- -- -- -- -- --
7/10/2020 00:00 to 23:10 -- -- -- -- -- --
7/9/2020 23:00 to 22:10 -- -- -- -- -- --
7/9/2020 22:00 to 21:10 -- -- -- -- -- --
7/9/2020 21:00 to 20:10 -- -- -- -- -- --
7/9/2020 20:00 to 19:10 -- -- -- -- -- --
7/9/2020 19:00 to 18:10 -- -- -- -- -- --
7/9/2020 18:00 to 17:10 -- -- -- -- -- --
7/9/2020 17:00 to 16:10 -- -- -- -- -- --
7/9/2020 16:00 to 15:10 -- -- -- -- -- --
7/9/2020 15:00 to 14:10 -- -- -- -- -- --
7/9/2020 14:00 to 13:10 22.02 22.10 21.98 22.13 22.00 21.98
7/9/2020 13:00 to 12:10 21.95 21.95 22.04 21.98 21.99 22.00
7/9/2020 12:00 to 11:10 22.06 21.98 22.02 22.07 22.06 22.06
7/9/2020 11:00 to 10:10 22.08 21.95 21.96 21.84 21.96 21.92
7/9/2020 10:00 to 9:10 21.93 21.94 21.96 22.05 22.03 22.00
7/9/2020 09:00 to 8:10 22.05 22.10 22.05 22.06 22.08 22.12
7/9/2020 08:00 to 7:10 22.06 22.10 22.08 22.15 22.18 22.10
7/9/2020 07:00 to 6:10 22.26 22.16 22.14 22.20 22.22 22.29
7/9/2020 06:00 to 5:10 22.25 22.32 22.38 22.28 22.44 22.44
7/9/2020 05:00 to 4:10 -- -- -- -- -- --
7/9/2020 04:00 to 3:10 22.49 22.58 22.51 22.52 22.55 22.48
7/9/2020 03:00 to 2:10 22.44 22.57 22.49 22.69 22.53 22.54
7/9/2020 02:00 to 1:10 22.56 22.58 22.56 22.58 22.65 22.73
7/9/2020 01:00 to 0:10 22.76 22.79 22.87 22.80 22.79 22.73
7/9/2020 00:00 to 23:10 -- -- -- -- -- --
7/8/2020 23:00 to 22:10 22.76 22.68 22.72 22.78 22.69 22.47
7/8/2020 22:00 to 21:10 22.25 22.12 21.98 22.07 22.09 21.99
7/8/2020 21:00 to 20:10 -- -- -- -- -- --
7/8/2020 20:00 to 19:10 -- -- -- -- -- --
7/8/2020 19:00 to 18:10 22.76 22.86 22.82 22.72 22.81 22.83
7/8/2020 18:00 to 17:10 -- -- -- -- -- --
7/8/2020 17:00 to 16:10 22.71 22.68 22.67 22.65 22.62 22.56
7/8/2020 16:00 to 15:10 -- -- -- -- -- --
7/8/2020 15:00 to 14:10 -- -- -- -- -- --
7/8/2020 14:00 to 13:10 22.34 22.42 22.45 22.40 22.47 22.49
7/8/2020 13:00 to 12:10 -- -- -- -- -- --
7/8/2020 12:00 to 11:10 -- -- -- -- -- --
7/8/2020 11:00 to 10:10 -- -- -- -- -- --
7/8/2020 10:00 to 9:10 -- -- -- -- -- --
7/8/2020 09:00 to 8:10 22.52 22.61 22.58 22.60 22.64 22.72
7/8/2020 08:00 to 7:10 22.70 22.78 22.76 22.66 22.72 22.78
7/8/2020 07:00 to 6:10 -- -- -- -- -- --
7/8/2020 06:00 to 5:10 22.73 22.80 22.66 22.78 22.77 22.87
7/8/2020 05:00 to 4:10 22.91 22.87 22.85 22.86 22.87 22.86
7/8/2020 04:00 to 3:10 22.86 22.87 22.86 22.86 22.87 22.87
7/8/2020 03:00 to 2:10 -- -- -- -- -- --
7/8/2020 02:00 to 1:10 -- -- -- -- -- --
7/8/2020 01:00 to 0:10 -- -- -- -- -- --